Time;durP1;ratioP1;P1;durP2;ratioP2;P2;SDS_P1;SDS_P2;PMS_P1;PMS_P2;Temp;Humidity;BMP_temperature;BMP_pressure;BME280_temperature;BME280_humidity;BME280_pressure;Samples;Min_cycle;Max_cycle;Signal;HPM_P1;HPM_P2
2023/07/16 00:01:57;;;;;;;3.13;1.67;;;21.40;86.10;;;;;;5113004;28;20047;-86
2023/07/16 00:04:23;;;;;;;2.40;1.58;;;21.40;86.10;;;;;;5113316;28;20390;-86
2023/07/16 00:06:48;;;;;;;2.65;1.50;;;21.40;86.30;;;;;;5111256;28;20073;-85
2023/07/16 00:09:14;;;;;;;2.83;1.55;;;21.40;86.30;;;;;;5111572;28;20020;-85
2023/07/16 00:11:40;;;;;;;2.00;1.50;;;21.30;86.30;;;;;;5112906;28;20036;-85
2023/07/16 00:14:05;;;;;;;2.85;1.70;;;21.30;86.30;;;;;;5111367;28;20111;-86
2023/07/16 00:16:31;;;;;;;2.50;1.38;;;21.30;86.40;;;;;;5111094;28;20028;-85
2023/07/16 00:18:56;;;;;;;1.92;1.38;;;21.30;86.40;;;;;;5112908;28;20024;-85
2023/07/16 00:21:22;;;;;;;2.78;1.52;;;21.30;86.40;;;;;;5111128;28;20020;-85
2023/07/16 00:23:47;;;;;;;2.53;1.50;;;21.30;86.50;;;;;;5113501;28;20168;-85
2023/07/16 00:26:13;;;;;;;2.78;1.83;;;21.30;86.50;;;;;;5114741;28;20111;-85
2023/07/16 00:28:39;;;;;;;2.72;1.40;;;21.30;86.50;;;;;;5116400;28;20398;-85
2023/07/16 00:31:04;;;;;;;3.70;1.60;;;21.30;86.50;;;;;;5114996;28;20030;-85
2023/07/16 00:33:30;;;;;;;2.25;1.50;;;21.30;86.50;;;;;;5115093;28;20065;-85
2023/07/16 00:35:55;;;;;;;3.15;1.50;;;21.30;86.50;;;;;;5115793;28;20033;-85
2023/07/16 00:38:21;;;;;;;2.22;1.50;;;21.30;86.50;;;;;;5122004;28;20084;-87
2023/07/16 00:40:47;;;;;;;2.45;1.50;;;21.30;86.50;;;;;;5121191;28;20077;-86
2023/07/16 00:43:13;;;;;;;1.98;1.40;;;21.30;86.50;;;;;;5122997;28;20024;-87
2023/07/16 00:45:40;;;;;;;1.75;1.30;;;21.30;86.50;;;;;;5121481;28;20039;-86
2023/07/16 00:48:06;;;;;;;2.42;1.42;;;21.20;86.50;;;;;;5121669;28;20034;-87
2023/07/16 00:50:34;;;;;;;2.13;1.40;;;21.30;86.50;;;;;;5121953;28;20020;-86
2023/07/16 00:53:01;;;;;;;2.17;1.30;;;21.30;86.60;;;;;;5122177;28;20031;-85
2023/07/16 00:55:28;;;;;;;2.35;1.45;;;21.30;86.50;;;;;;5121921;28;20043;-86
2023/07/16 00:57:55;;;;;;;1.77;1.27;;;21.30;86.40;;;;;;5121575;28;20023;-87
2023/07/16 01:00:21;;;;;;;2.38;1.50;;;21.30;86.40;;;;;;5123317;28;20079;-87
2023/07/16 01:02:47;;;;;;;2.65;1.58;;;21.30;86.40;;;;;;5120973;28;20062;-86
2023/07/16 01:05:13;;;;;;;2.28;1.40;;;21.40;86.40;;;;;;5122166;28;20020;-87
2023/07/16 01:07:42;;;;;;;1.98;1.25;;;21.40;86.30;;;;;;5120730;28;20038;-87
2023/07/16 01:10:08;;;;;;;2.35;1.33;;;21.40;86.30;;;;;;5121793;28;20039;-87
2023/07/16 01:12:35;;;;;;;2.75;1.50;;;21.40;86.20;;;;;;5120293;28;20028;-86
2023/07/16 01:15:01;;;;;;;2.13;1.38;;;21.40;86.20;;;;;;5121515;28;20031;-86
2023/07/16 01:17:26;;;;;;;2.15;1.40;;;21.40;86.20;;;;;;5120275;28;20543;-86
2023/07/16 01:19:52;;;;;;;2.30;1.30;;;21.40;86.20;;;;;;5120770;28;20031;-86
2023/07/16 01:22:33;;;;;;;2.47;1.52;;;21.40;86.10;;;;;;5119519;28;20395;-87
2023/07/16 01:25:20;;;;;;;3.05;1.40;;;21.40;86.20;;;;;;5119913;28;20061;-87
2023/07/16 01:27:51;;;;;;;2.45;1.50;;;21.40;86.30;;;;;;5118283;28;20076;-86
2023/07/16 01:30:18;;;;;;;1.85;1.40;;;21.40;86.30;;;;;;5118575;28;20027;-85
2023/07/16 01:32:45;;;;;;;2.92;1.60;;;21.30;86.30;;;;;;5119048;28;20032;-87
2023/07/16 01:35:12;;;;;;;2.35;1.27;;;21.30;86.40;;;;;;5117738;28;20499;-85
2023/07/16 01:37:38;;;;;;;2.63;1.50;;;21.30;86.50;;;;;;5119117;28;20031;-86
2023/07/16 01:40:08;;;;;;;2.40;1.30;;;21.30;87.00;;;;;;5119732;28;20395;-86
2023/07/16 01:42:34;;;;;;;1.70;1.20;;;21.30;86.60;;;;;;5118839;27;20065;-86
2023/07/16 01:45:00;;;;;;;2.00;1.30;;;21.40;86.70;;;;;;5117367;28;20028;-85
2023/07/16 01:47:35;;;;;;;2.38;1.20;;;21.20;86.60;;;;;;5116177;28;20480;-86
2023/07/16 01:50:00;;;;;;;2.00;1.30;;;21.30;86.60;;;;;;5116479;28;20080;-85
2023/07/16 01:52:26;;;;;;;2.47;1.33;;;21.30;86.60;;;;;;5116425;28;20016;-86
2023/07/16 01:54:52;;;;;;;2.35;1.23;;;21.20;86.80;;;;;;5117600;28;20028;-85
2023/07/16 01:57:17;;;;;;;1.88;1.20;;;21.20;86.60;;;;;;5116790;28;20046;-86
2023/07/16 01:59:43;;;;;;;2.00;1.33;;;21.20;86.60;;;;;;5116055;28;20578;-85
2023/07/16 02:02:08;;;;;;;2.28;1.30;;;21.20;86.60;;;;;;5115037;28;20031;-85
2023/07/16 02:04:34;;;;;;;2.00;1.27;;;21.30;86.70;;;;;;5117206;28;20024;-86
2023/07/16 02:06:59;;;;;;;2.92;1.30;;;21.20;86.60;;;;;;5114862;28;20019;-86
2023/07/16 02:09:25;;;;;;;1.83;1.23;;;21.30;86.70;;;;;;5117117;28;20118;-85
2023/07/16 02:11:51;;;;;;;2.33;1.23;;;21.30;86.70;;;;;;5113693;28;20016;-86
2023/07/16 02:14:16;;;;;;;2.75;1.52;;;21.20;86.70;;;;;;5131220;27;20028;-85
2023/07/16 02:16:42;;;;;;;2.20;1.30;;;21.20;86.70;;;;;;5114741;28;20034;-85
2023/07/16 02:19:07;;;;;;;2.50;1.45;;;21.20;86.70;;;;;;5114583;28;20499;-85
2023/07/16 02:21:33;;;;;;;2.42;1.60;;;21.20;86.70;;;;;;5114471;28;20023;-86
2023/07/16 02:23:59;;;;;;;1.75;1.23;;;21.30;86.60;;;;;;5116105;28;20031;-85
2023/07/16 02:26:24;;;;;;;1.60;1.20;;;21.30;86.60;;;;;;5115632;27;20387;-85
2023/07/16 02:28:50;;;;;;;1.98;1.27;;;21.30;86.60;;;;;;5115366;28;20031;-86
2023/07/16 02:31:15;;;;;;;1.95;1.30;;;21.30;86.50;;;;;;5113472;28;20058;-85
2023/07/16 02:33:40;;;;;;;2.67;1.40;;;21.30;86.50;;;;;;5115721;28;20030;-85
2023/07/16 02:36:06;;;;;;;1.88;1.20;;;21.40;86.50;;;;;;5115181;28;20036;-82
2023/07/16 02:38:32;;;;;;;2.08;1.50;;;21.40;86.40;;;;;;5113244;28;20099;-85
2023/07/16 02:40:57;;;;;;;1.95;1.13;;;21.40;86.40;;;;;;5114871;28;20019;-85
2023/07/16 02:43:23;;;;;;;2.58;1.40;;;21.40;86.30;;;;;;5113149;28;20035;-86
2023/07/16 02:45:48;;;;;;;2.25;1.40;;;21.40;86.30;;;;;;5112667;28;20031;-85
2023/07/16 02:48:14;;;;;;;2.85;1.38;;;21.40;86.30;;;;;;5114578;28;20020;-85
2023/07/16 02:50:39;;;;;;;1.75;1.33;;;21.40;86.40;;;;;;5113879;28;20099;-85
2023/07/16 02:53:06;;;;;;;2.13;1.20;;;21.40;86.30;;;;;;5112641;28;20118;-86
2023/07/16 02:55:32;;;;;;;2.10;1.30;;;21.40;86.40;;;;;;5114201;28;20024;-85
2023/07/16 02:57:58;;;;;;;2.03;1.30;;;21.30;86.40;;;;;;5113990;28;20035;-85
2023/07/16 03:00:23;;;;;;;2.33;1.20;;;21.30;86.60;;;;;;5114108;28;20498;-85
2023/07/16 03:02:49;;;;;;;2.35;1.50;;;21.30;86.70;;;;;;5112332;28;20028;-86
2023/07/16 03:05:16;;;;;;;1.67;1.25;;;21.30;86.80;;;;;;5113821;28;20386;-85
2023/07/16 03:07:42;;;;;;;2.08;1.30;;;21.30;86.80;;;;;;5112025;28;20620;-85
2023/07/16 03:10:08;;;;;;;2.47;1.27;;;21.30;86.80;;;;;;5113784;28;20081;-86
2023/07/16 03:12:33;;;;;;;2.35;1.10;;;21.30;86.80;;;;;;5112159;28;20024;-86
2023/07/16 03:14:59;;;;;;;3.22;1.50;;;21.30;86.80;;;;;;5113783;28;20502;-85
2023/07/16 03:17:24;;;;;;;2.60;1.23;;;21.20;86.80;;;;;;5111762;28;20019;-86
2023/07/16 03:19:50;;;;;;;1.88;1.23;;;21.20;86.70;;;;;;5111874;28;20026;-85
2023/07/16 03:22:15;;;;;;;2.50;1.30;;;21.20;86.70;;;;;;5113398;28;20042;-86
2023/07/16 03:24:41;;;;;;;2.40;1.30;;;21.20;86.80;;;;;;5111774;28;20072;-85
2023/07/16 03:27:07;;;;;;;1.65;1.10;;;21.20;86.80;;;;;;5111614;28;20158;-85
2023/07/16 03:29:33;;;;;;;2.22;1.20;;;21.20;86.70;;;;;;5113004;28;20027;-85
2023/07/16 03:31:59;;;;;;;3.53;1.40;;;21.20;86.70;;;;;;5112958;28;20028;-85
2023/07/16 03:34:24;;;;;;;2.50;1.25;;;21.20;86.70;;;;;;5112824;28;20489;-85
2023/07/16 03:36:50;;;;;;;1.67;1.20;;;21.20;86.80;;;;;;5112383;28;20051;-86
2023/07/16 03:39:15;;;;;;;3.05;1.52;;;21.20;86.70;;;;;;5112783;28;20024;-85
2023/07/16 03:41:41;;;;;;;2.60;1.20;;;21.20;86.80;;;;;;5111571;28;20020;-85
2023/07/16 03:44:06;;;;;;;1.63;1.20;;;21.20;86.70;;;;;;5112808;28;20499;-86
2023/07/16 03:46:32;;;;;;;1.95;1.27;;;21.20;86.80;;;;;;5112599;28;20024;-85
2023/07/16 03:48:57;;;;;;;2.20;1.20;;;21.20;86.80;;;;;;5111026;28;20027;-85
2023/07/16 03:51:23;;;;;;;2.08;1.30;;;21.20;86.70;;;;;;5111387;28;20491;-85
2023/07/16 03:53:48;;;;;;;1.63;1.10;;;21.30;86.80;;;;;;5111185;28;20098;-85
2023/07/16 03:56:14;;;;;;;2.67;1.30;;;21.20;86.70;;;;;;5113253;28;20038;-87
2023/07/16 03:58:40;;;;;;;2.63;1.40;;;21.30;86.80;;;;;;5121145;28;20027;-87
2023/07/16 04:01:05;;;;;;;2.80;1.50;;;21.30;86.70;;;;;;5124711;28;20022;-88
2023/07/16 04:03:31;;;;;;;1.77;1.20;;;21.30;86.60;;;;;;5124124;28;20098;-87
2023/07/16 04:06:04;;;;;;;1.80;1.10;;;21.40;86.60;;;;;;5122359;28;20119;-83
2023/07/16 04:08:29;;;;;;;2.03;1.30;;;21.40;86.50;;;;;;5122548;28;20034;-87
2023/07/16 04:10:55;;;;;;;2.97;1.10;;;21.40;86.50;;;;;;5124204;28;20051;-87
2023/07/16 04:13:20;;;;;;;1.95;1.30;;;21.40;86.50;;;;;;5121562;28;20487;-87
2023/07/16 04:15:46;;;;;;;2.30;1.20;;;21.40;86.40;;;;;;5122781;28;20055;-86
2023/07/16 04:18:11;;;;;;;2.45;1.30;;;21.40;86.40;;;;;;5121798;28;20032;-87
2023/07/16 04:20:37;;;;;;;2.13;1.30;;;21.40;86.40;;;;;;5123293;28;20020;-87
2023/07/16 04:23:02;;;;;;;1.55;1.20;;;21.40;86.50;;;;;;5124304;28;20054;-86
2023/07/16 04:25:28;;;;;;;2.03;1.27;;;21.40;86.50;;;;;;5122895;28;20106;-87
2023/07/16 04:27:53;;;;;;;2.20;1.40;;;21.30;86.50;;;;;;5119989;28;20019;-87
2023/07/16 04:30:19;;;;;;;2.17;1.27;;;21.30;86.70;;;;;;5123263;28;20028;-86
2023/07/16 04:32:44;;;;;;;2.38;1.45;;;21.30;86.70;;;;;;5121424;28;20114;-87
2023/07/16 04:35:10;;;;;;;2.53;1.20;;;21.30;86.80;;;;;;5121099;28;20118;-85
2023/07/16 04:37:35;;;;;;;2.90;1.40;;;21.30;86.80;;;;;;5122205;27;20059;-86
2023/07/16 04:40:01;;;;;;;1.30;1.10;;;21.20;86.80;;;;;;5120861;28;20026;-86
2023/07/16 04:42:26;;;;;;;2.28;1.30;;;21.30;86.80;;;;;;5120792;28;20023;-86
2023/07/16 04:44:52;;;;;;;1.45;1.20;;;21.20;86.80;;;;;;5121425;28;20023;-86
2023/07/16 04:47:17;;;;;;;2.50;1.30;;;21.30;86.80;;;;;;5119884;28;20080;-86
2023/07/16 04:49:43;;;;;;;1.90;1.30;;;21.20;86.70;;;;;;5120590;28;20111;-86
2023/07/16 04:52:08;;;;;;;1.80;1.20;;;21.30;86.80;;;;;;5121318;28;20024;-86
2023/07/16 04:54:38;;;;;;;1.92;1.20;;;21.30;86.80;;;;;;5120923;28;20027;-86
2023/07/16 04:57:05;;;;;;;1.70;1.10;;;21.20;86.70;;;;;;5120107;28;20031;-86
2023/07/16 04:59:30;;;;;;;2.45;1.30;;;21.30;86.80;;;;;;5119860;28;20055;-86
2023/07/16 05:01:56;;;;;;;1.45;1.00;;;21.20;86.70;;;;;;5118894;28;20387;-86
2023/07/16 05:04:22;;;;;;;2.00;1.20;;;21.30;86.80;;;;;;5118458;28;20027;-87
2023/07/16 05:06:47;;;;;;;2.30;1.27;;;21.20;86.70;;;;;;5119280;28;20045;-86
2023/07/16 05:09:13;;;;;;;1.90;1.10;;;21.30;86.70;;;;;;5119429;28;20110;-86
2023/07/16 05:11:38;;;;;;;2.13;1.27;;;21.20;86.70;;;;;;5118023;28;20028;-86
2023/07/16 05:14:04;;;;;;;2.55;1.25;;;21.30;86.70;;;;;;5117454;28;20070;-85
2023/07/16 05:16:29;;;;;;;2.60;1.23;;;21.30;86.70;;;;;;5118734;28;20145;-86
2023/07/16 05:18:55;;;;;;;3.35;1.40;;;21.30;86.70;;;;;;5118811;28;20032;-85
2023/07/16 05:21:21;;;;;;;2.22;1.33;;;21.30;86.60;;;;;;5118510;28;20031;-85
2023/07/16 05:23:46;;;;;;;2.60;1.33;;;21.30;86.50;;;;;;5116711;28;20103;-85
2023/07/16 05:26:11;;;;;;;2.00;1.23;;;21.30;86.60;;;;;;5116307;28;20031;-86
2023/07/16 05:28:37;;;;;;;1.85;1.08;;;21.30;86.60;;;;;;5118087;28;20110;-88
2023/07/16 05:31:03;;;;;;;2.40;1.27;;;21.40;86.50;;;;;;5111370;28;20024;-86
2023/07/16 05:33:31;;;;;;;1.98;1.23;;;21.30;86.40;;;;;;5112218;28;20039;-86
2023/07/16 05:51:56;;;;;;;1.70;1.15;;;21.40;85.50;;;;;;5051039;28;20120;-85
2023/07/16 05:54:23;;;;;;;2.25;1.10;;;21.50;85.50;;;;;;5051261;28;20033;-87
2023/07/16 06:35:39;;;;;;;2.17;1.00;;;21.40;85.80;;;;;;5054052;28;20053;-86
2023/07/16 06:38:21;;;;;;;3.03;1.10;;;21.50;85.90;;;;;;5052890;28;20063;-86
2023/07/16 06:41:05;;;;;;;2.08;1.20;;;21.70;85.90;;;;;;5051560;28;20405;-84
2023/07/16 06:43:50;;;;;;;1.90;1.15;;;21.80;85.90;;;;;;5051348;28;20074;-84
2023/07/16 06:46:15;;;;;;;1.48;1.00;;;21.40;85.60;;;;;;5049642;28;20028;-84
2023/07/16 06:48:41;;;;;;;2.53;1.42;;;22.00;86.00;;;;;;5050348;28;20025;-85
2023/07/16 06:51:18;;;;;;;2.10;1.30;;;21.80;85.80;;;;;;5049618;28;20534;-84
2023/07/16 06:54:05;;;;;;;2.38;1.20;;;22.70;86.40;;;;;;5049652;28;20071;-85
2023/07/16 07:14:20;;;;;;;;;;;;;;;;;;;;;
2023/07/16 07:17:46;;;;;;;;;;;;;;;;;;;;;
2023/07/16 07:20:26;;;;;;;2.85;1.27;;;21.60;84.70;;;;;;5027818;28;20045;-84
2023/07/16 07:22:52;;;;;;;1.95;1.30;;;21.60;84.70;;;;;;5031768;28;20029;-86
2023/07/16 07:25:30;;;;;;;2.50;1.35;;;20.20;84.10;;;;;;5046610;28;20032;-84
2023/07/16 07:28:32;;;;;;;2.22;1.33;;;21.10;84.60;;;;;;5045867;28;20060;-85
2023/07/16 07:30:55;;;;;;;2.40;1.38;;;21.60;84.90;;;;;;5056951;28;20448;-82
2023/07/16 07:33:20;;;;;;;2.05;1.25;;;22.40;85.40;;;;;;5057131;28;20033;-83
2023/07/16 07:35:46;;;;;;;2.42;1.30;;;22.50;85.50;;;;;;5062399;28;20128;-83
2023/07/16 07:38:11;;;;;;;2.05;1.20;;;21.60;85.00;;;;;;5063763;28;20054;-83
2023/07/16 07:40:37;;;;;;;2.70;1.40;;;21.60;85.00;;;;;;5060650;28;20120;-82
2023/07/16 07:43:02;;;;;;;2.15;1.33;;;21.60;84.90;;;;;;5058964;28;20031;-84
2023/07/16 07:45:28;;;;;;;3.17;1.40;;;21.60;84.80;;;;;;5057908;28;20025;-81
2023/07/16 07:47:53;;;;;;;3.65;1.50;;;21.70;84.80;;;;;;5055512;28;20032;-81
2023/07/16 07:50:19;;;;;;;3.60;1.50;;;21.70;84.60;;;;;;5056328;28;20080;-82
2023/07/16 07:52:44;;;;;;;2.50;1.45;;;21.70;84.50;;;;;;5052890;28;20501;-83
2023/07/16 07:55:10;;;;;;;2.83;1.42;;;21.70;84.60;;;;;;5050501;28;20033;-84
2023/07/16 07:57:35;;;;;;;2.10;1.30;;;21.70;84.30;;;;;;5048544;28;20029;-84
2023/07/16 08:00:01;;;;;;;2.20;1.33;;;21.70;84.30;;;;;;5049412;28;20029;-85
2023/07/16 08:02:26;;;;;;;2.45;1.33;;;21.70;84.30;;;;;;5048808;28;20074;-82
2023/07/16 08:04:53;;;;;;;3.13;1.60;;;21.80;84.30;;;;;;5048735;28;20370;-84
2023/07/16 08:07:19;;;;;;;3.08;1.55;;;21.80;84.10;;;;;;5049978;28;20051;-81
2023/07/16 08:09:45;;;;;;;3.38;1.50;;;21.70;83.80;;;;;;5050447;28;20111;-83
2023/07/16 08:12:11;;;;;;;3.60;1.50;;;21.70;83.70;;;;;;5045190;28;20398;-82
2023/07/16 08:14:36;;;;;;;3.47;1.50;;;21.80;83.70;;;;;;5048618;28;20080;-82
2023/07/16 08:17:02;;;;;;;2.50;1.45;;;21.80;83.60;;;;;;5046467;28;20043;-81
2023/07/16 08:19:27;;;;;;;2.60;1.50;;;21.80;83.90;;;;;;5046236;28;20444;-82
2023/07/16 08:21:53;;;;;;;2.65;1.60;;;21.80;84.00;;;;;;5046861;28;20033;-83
2023/07/16 08:24:19;;;;;;;3.83;1.73;;;21.80;83.90;;;;;;5045577;28;20067;-82
2023/07/16 08:26:45;;;;;;;3.90;1.80;;;21.80;83.90;;;;;;5047417;28;20079;-84
2023/07/16 08:29:10;;;;;;;3.45;1.83;;;21.80;83.90;;;;;;5046891;28;20025;-82
2023/07/16 08:31:36;;;;;;;3.28;1.50;;;21.80;83.80;;;;;;5047811;28;20177;-83
2023/07/16 08:34:01;;;;;;;3.42;1.58;;;21.90;83.90;;;;;;5046382;28;20031;-82
2023/07/16 08:36:27;;;;;;;3.60;1.70;;;21.80;83.80;;;;;;5045646;28;20033;-83
2023/07/16 08:38:52;;;;;;;3.05;1.70;;;22.00;83.90;;;;;;5045835;28;20500;-83
2023/07/16 08:41:18;;;;;;;3.17;1.75;;;21.90;83.70;;;;;;5047889;28;20103;-82
2023/07/16 08:43:47;;;;;;;2.75;1.52;;;21.90;83.70;;;;;;5046546;28;20029;-83
2023/07/16 08:46:13;;;;;;;2.97;1.60;;;21.90;83.70;;;;;;5049129;28;20269;-82
2023/07/16 08:48:39;;;;;;;3.20;1.75;;;21.90;83.60;;;;;;5049327;28;20079;-83
2023/07/16 08:51:07;;;;;;;2.92;1.58;;;21.80;83.60;;;;;;5048816;28;20025;-81
2023/07/16 08:53:32;;;;;;;3.17;1.70;;;21.90;83.80;;;;;;5049378;28;20081;-83
2023/07/16 08:55:58;;;;;;;3.95;1.63;;;21.80;83.80;;;;;;5048749;28;20029;-83
2023/07/16 08:58:24;;;;;;;3.55;1.88;;;21.90;84.10;;;;;;5050091;28;20497;-82
2023/07/16 09:00:50;;;;;;;3.45;1.88;;;21.80;84.10;;;;;;5048467;28;20381;-82
2023/07/16 09:03:16;;;;;;;3.38;1.50;;;21.80;84.20;;;;;;5048694;28;20489;-83
2023/07/16 09:05:44;;;;;;;3.67;1.90;;;21.80;84.20;;;;;;5048398;28;20071;-82
2023/07/16 09:08:09;;;;;;;3.92;1.80;;;21.80;84.20;;;;;;5048043;28;20036;-82
2023/07/16 09:10:35;;;;;;;3.45;1.55;;;21.80;84.30;;;;;;5049955;28;20033;-82
2023/07/16 09:13:01;;;;;;;2.92;1.60;;;21.80;84.30;;;;;;5048295;28;20055;-82
2023/07/16 09:15:29;;;;;;;2.55;1.50;;;21.80;84.40;;;;;;5049678;28;20583;-82
2023/07/16 09:17:55;;;;;;;2.05;1.40;;;21.80;84.30;;;;;;5048921;28;20037;-82
2023/07/16 09:20:23;;;;;;;3.33;1.60;;;21.80;84.30;;;;;;5048205;28;20029;-82
2023/07/16 09:22:49;;;;;;;2.88;1.75;;;21.90;84.10;;;;;;5047835;28;20329;-81
2023/07/16 09:25:15;;;;;;;3.13;1.73;;;21.90;84.10;;;;;;5048828;28;20021;-83
2023/07/16 09:27:40;;;;;;;3.63;1.67;;;21.90;83.80;;;;;;5047266;28;20499;-81
2023/07/16 09:30:07;;;;;;;3.28;1.77;;;22.00;83.90;;;;;;5047680;28;20082;-82
2023/07/16 09:32:41;;;;;;;3.38;1.65;;;21.90;83.80;;;;;;5048645;28;20118;-80
2023/07/16 09:35:15;;;;;;;2.50;1.50;;;22.00;83.70;;;;;;5047375;28;20433;-82
2023/07/16 09:37:41;;;;;;;3.00;1.70;;;21.90;83.70;;;;;;5048598;28;20074;-82
2023/07/16 09:40:09;;;;;;;2.55;1.40;;;22.00;83.70;;;;;;5048727;28;20025;-82
2023/07/16 09:42:44;;;;;;;3.38;1.65;;;22.00;83.80;;;;;;5048379;28;20392;-81
2023/07/16 09:45:17;;;;;;;3.13;1.70;;;22.00;83.60;;;;;;5048697;28;20033;-82
2023/07/16 09:47:43;;;;;;;4.78;2.10;;;22.00;83.60;;;;;;5046967;28;20082;-84
2023/07/16 09:50:11;;;;;;;2.67;1.60;;;22.00;84.20;;;;;;5048090;28;20037;-82
2023/07/16 09:52:37;;;;;;;3.00;1.60;;;22.00;83.80;;;;;;5046919;28;20032;-81
2023/07/16 09:55:03;;;;;;;3.72;1.70;;;22.00;83.80;;;;;;5047029;28;20063;-82
2023/07/16 09:57:39;;;;;;;2.50;1.42;;;22.00;83.70;;;;;;5047711;28;20047;-83
2023/07/16 10:00:12;;;;;;;3.03;1.60;;;22.10;83.70;;;;;;5047806;28;20034;-82
2023/07/16 10:02:38;;;;;;;3.28;1.50;;;22.10;83.50;;;;;;5046843;28;20017;-82
2023/07/16 10:05:18;;;;;;;3.20;1.67;;;22.10;83.40;;;;;;5046490;28;20025;-82
2023/07/16 10:07:50;;;;;;;4.63;2.03;;;22.20;83.30;;;;;;5047875;28;20436;-84
2023/07/16 10:10:17;;;;;;;3.08;1.60;;;22.20;83.10;;;;;;5046411;28;20036;-82
2023/07/16 10:12:54;;;;;;;4.18;1.90;;;22.20;83.10;;;;;;5046499;28;20791;-80
2023/07/16 10:15:25;;;;;;;3.13;2.03;;;22.20;83.10;;;;;;5046542;28;20412;-82
2023/07/16 10:17:51;;;;;;;2.72;1.50;;;22.20;83.00;;;;;;5046276;28;20084;-82
2023/07/16 10:20:16;;;;;;;3.28;1.80;;;22.20;83.00;;;;;;5047755;28;20035;-82
2023/07/16 10:22:45;;;;;;;2.90;1.80;;;22.20;82.90;;;;;;5046404;28;20069;-82
2023/07/16 10:25:17;;;;;;;2.88;1.70;;;22.20;83.40;;;;;;5045985;28;20116;-82
2023/07/16 10:27:44;;;;;;;3.30;1.70;;;22.20;83.00;;;;;;5046149;28;20033;-83
2023/07/16 10:30:10;;;;;;;3.70;1.75;;;22.20;83.10;;;;;;5047516;28;20032;-82
2023/07/16 10:32:36;;;;;;;2.22;1.52;;;22.20;83.00;;;;;;5052596;28;20025;-83
2023/07/16 10:35:03;;;;;;;3.50;1.92;;;22.20;83.20;;;;;;5052267;28;20033;-83
2023/07/16 10:37:29;;;;;;;2.88;1.60;;;22.10;83.10;;;;;;5051080;28;20404;-82
2023/07/16 10:39:57;;;;;;;3.00;1.70;;;22.10;83.00;;;;;;5050675;28;20017;-83
2023/07/16 10:42:24;;;;;;;4.00;1.90;;;22.10;83.10;;;;;;5052131;28;20385;-82
2023/07/16 10:44:51;;;;;;;2.95;1.70;;;22.10;83.20;;;;;;5050339;28;20493;-82
2023/07/16 10:47:34;;;;;;;4.45;1.95;;;22.10;83.30;;;;;;5049902;28;20032;-82
2023/07/16 10:50:03;;;;;;;2.67;1.55;;;22.10;83.40;;;;;;5049281;28;20056;-82
2023/07/16 10:52:29;;;;;;;4.20;1.90;;;22.10;83.50;;;;;;5051786;28;20132;-84
2023/07/16 10:54:54;;;;;;;3.33;1.80;;;22.00;83.40;;;;;;5051206;28;20161;-83
2023/07/16 10:57:21;;;;;;;3.13;1.75;;;22.10;83.40;;;;;;5052243;28;20032;-83
2023/07/16 10:59:48;;;;;;;3.22;1.83;;;22.10;83.40;;;;;;5052409;28;20021;-84
2023/07/16 11:02:15;;;;;;;2.67;1.40;;;22.10;83.40;;;;;;5050186;28;20376;-83
2023/07/16 11:04:41;;;;;;;3.65;1.90;;;22.10;83.50;;;;;;5050426;28;20447;-84
2023/07/16 11:07:16;;;;;;;2.83;1.67;;;22.10;83.30;;;;;;5049423;28;20032;-83
2023/07/16 11:09:43;;;;;;;2.75;1.60;;;22.10;83.30;;;;;;5049784;28;20033;-83
2023/07/16 11:12:11;;;;;;;3.05;1.90;;;22.20;83.30;;;;;;5049423;28;20039;-82
2023/07/16 11:14:37;;;;;;;3.15;1.70;;;22.10;83.20;;;;;;5049013;28;20032;-81
2023/07/16 11:17:10;;;;;;;2.85;1.70;;;22.20;83.20;;;;;;5050176;28;20033;-83
2023/07/16 11:19:37;;;;;;;2.97;1.50;;;22.10;83.20;;;;;;5048881;28;20234;-84
2023/07/16 11:22:04;;;;;;;2.97;1.70;;;22.20;83.70;;;;;;5049921;28;20536;-82
2023/07/16 11:24:41;;;;;;;3.15;1.77;;;22.20;83.20;;;;;;5048124;28;20109;-83
2023/07/16 11:27:33;;;;;;;2.65;1.60;;;22.20;83.10;;;;;;5048949;28;20467;-83
2023/07/16 11:30:00;;;;;;;3.10;1.70;;;22.20;82.90;;;;;;5045779;28;20140;-81
2023/07/16 11:32:33;;;;;;;4.35;1.80;;;22.20;82.90;;;;;;5047890;28;20083;-82
2023/07/16 11:35:00;;;;;;;2.40;1.60;;;22.20;82.80;;;;;;5047999;28;20033;-84
2023/07/16 11:37:27;;;;;;;3.35;1.48;;;22.20;82.90;;;;;;5047130;28;20056;-82
2023/07/16 11:40:03;;;;;;;4.20;1.90;;;22.30;82.90;;;;;;5047053;28;20356;-81
2023/07/16 11:42:32;;;;;;;4.43;1.90;;;22.20;82.80;;;;;;5048981;28;20046;-83
2023/07/16 11:44:59;;;;;;;2.95;1.73;;;22.30;83.40;;;;;;5047557;28;20417;-84
2023/07/16 11:47:25;;;;;;;4.25;1.75;;;22.30;82.90;;;;;;5046566;28;20060;-82
2023/07/16 11:49:51;;;;;;;3.25;1.73;;;22.20;82.70;;;;;;5047250;28;20039;-83
2023/07/16 11:52:28;;;;;;;3.88;2.10;;;22.30;82.80;;;;;;5046764;28;20037;-82
2023/07/16 11:54:59;;;;;;;3.60;1.80;;;22.20;82.80;;;;;;5048340;28;20367;-83
2023/07/16 11:57:25;;;;;;;4.05;1.80;;;22.20;82.90;;;;;;5046009;28;20029;-82
2023/07/16 11:59:50;;;;;;;2.58;1.63;;;22.20;83.00;;;;;;5046449;28;20491;-83
2023/07/16 12:02:16;;;;;;;3.28;1.73;;;22.20;83.00;;;;;;5046797;28;20036;-82
2023/07/16 12:04:42;;;;;;;2.92;1.65;;;22.20;83.10;;;;;;5046267;28;20024;-82
2023/07/16 12:07:07;;;;;;;4.07;2.10;;;22.20;83.20;;;;;;5046097;28;20481;-82
2023/07/16 12:09:33;;;;;;;3.60;1.77;;;22.20;83.30;;;;;;5045616;28;20036;-82
2023/07/16 12:11:59;;;;;;;3.55;1.70;;;22.10;83.20;;;;;;5046267;28;20040;-82
2023/07/16 12:14:25;;;;;;;2.85;1.60;;;22.10;83.30;;;;;;5046960;28;20024;-83
2023/07/16 12:16:51;;;;;;;3.40;1.70;;;22.10;83.40;;;;;;5045230;28;20029;-82
2023/07/16 12:19:16;;;;;;;3.22;1.70;;;22.10;83.40;;;;;;5048514;28;20714;-81
2023/07/16 12:21:42;;;;;;;2.70;1.58;;;22.00;83.40;;;;;;5049550;28;20020;-82
2023/07/16 12:24:07;;;;;;;3.30;1.60;;;22.10;83.50;;;;;;5050344;28;20035;-81
2023/07/16 12:26:33;;;;;;;3.17;1.58;;;22.00;83.50;;;;;;5050367;28;20040;-82
2023/07/16 12:29:02;;;;;;;3.47;1.80;;;22.10;83.60;;;;;;5050458;28;20032;-84
2023/07/16 12:31:28;;;;;;;3.13;1.67;;;22.10;83.50;;;;;;5049356;28;20553;-82
2023/07/16 12:33:53;;;;;;;3.15;1.73;;;22.00;83.50;;;;;;5050445;28;20108;-81
2023/07/16 12:36:19;;;;;;;2.90;1.63;;;22.00;83.50;;;;;;5049860;28;20024;-83
2023/07/16 12:38:44;;;;;;;3.08;1.80;;;22.10;83.60;;;;;;5048690;28;20188;-83
2023/07/16 12:41:10;;;;;;;3.42;1.80;;;22.00;83.50;;;;;;5050204;28;20488;-82
2023/07/16 12:43:36;;;;;;;3.72;1.95;;;22.00;83.50;;;;;;5048633;28;20025;-81
2023/07/16 12:46:02;;;;;;;3.75;1.98;;;22.00;83.60;;;;;;5048291;28;20021;-82
2023/07/16 12:48:29;;;;;;;2.88;1.58;;;22.00;83.60;;;;;;5048152;28;20033;-84
2023/07/16 12:50:54;;;;;;;3.17;1.60;;;22.00;83.60;;;;;;5048682;28;20098;-83
2023/07/16 12:53:20;;;;;;;4.22;1.98;;;22.00;83.60;;;;;;5048134;28;20084;-84
2023/07/16 12:55:45;;;;;;;2.35;1.60;;;22.00;83.50;;;;;;5048024;28;20033;-82
2023/07/16 12:58:11;;;;;;;3.65;1.65;;;22.00;83.50;;;;;;5049306;28;20181;-81
2023/07/16 13:00:36;;;;;;;2.35;1.48;;;22.10;83.40;;;;;;5049353;28;20029;-82
2023/07/16 13:03:02;;;;;;;3.35;1.70;;;22.10;83.30;;;;;;5047980;28;20349;-82
2023/07/16 13:05:28;;;;;;;3.65;1.80;;;22.10;83.20;;;;;;5047963;28;20326;-82
2023/07/16 13:07:53;;;;;;;3.50;1.73;;;22.10;83.10;;;;;;5049087;28;20034;-84
2023/07/16 13:10:19;;;;;;;3.22;1.80;;;22.10;83.10;;;;;;5047801;28;20489;-82
2023/07/16 13:12:44;;;;;;;3.08;1.77;;;22.10;83.40;;;;;;5047691;28;20441;-84
2023/07/16 13:15:10;;;;;;;3.20;1.80;;;22.10;83.70;;;;;;5047317;28;20431;-81
2023/07/16 13:17:37;;;;;;;2.78;1.58;;;22.20;83.10;;;;;;5048483;28;20024;-82
2023/07/16 13:20:03;;;;;;;4.70;2.10;;;22.10;83.10;;;;;;5046990;28;20056;-81
2023/07/16 13:22:28;;;;;;;2.90;1.60;;;22.10;83.10;;;;;;5048859;28;20024;-82
2023/07/16 13:24:54;;;;;;;3.47;1.65;;;22.10;83.10;;;;;;5047123;28;20025;-81
2023/07/16 13:27:21;;;;;;;3.58;1.85;;;22.10;83.20;;;;;;5046667;28;20032;-83
2023/07/16 13:29:47;;;;;;;2.85;1.75;;;22.00;83.20;;;;;;5046789;28;20041;-82
2023/07/16 13:32:12;;;;;;;3.03;1.60;;;22.10;83.40;;;;;;5047337;28;20036;-82
2023/07/16 13:34:38;;;;;;;3.42;1.50;;;22.10;83.40;;;;;;5047372;28;20029;-83
2023/07/16 13:37:04;;;;;;;3.80;1.80;;;22.00;83.50;;;;;;5048155;28;20516;-82
2023/07/16 13:39:29;;;;;;;3.38;1.80;;;22.00;83.60;;;;;;5047272;28;20029;-84
2023/07/16 13:41:55;;;;;;;3.22;1.67;;;22.00;83.70;;;;;;5048321;28;20025;-82
2023/07/16 13:44:21;;;;;;;3.30;1.77;;;22.00;83.80;;;;;;5048531;28;20075;-82
2023/07/16 13:46:47;;;;;;;3.38;1.85;;;22.00;83.80;;;;;;5053651;28;20368;-84
2023/07/16 13:49:12;;;;;;;2.78;1.58;;;21.90;83.90;;;;;;5053762;28;20114;-83
2023/07/16 13:51:38;;;;;;;3.10;1.60;;;22.00;83.90;;;;;;5052398;28;20032;-82
2023/07/16 13:54:03;;;;;;;2.58;1.50;;;22.00;84.00;;;;;;5052180;28;20033;-84
2023/07/16 13:56:29;;;;;;;2.90;1.60;;;22.00;84.00;;;;;;5052932;28;20037;-84
2023/07/16 13:58:54;;;;;;;3.97;1.60;;;21.90;83.90;;;;;;5051311;28;20048;-83
2023/07/16 14:01:20;;;;;;;3.60;1.88;;;21.90;83.90;;;;;;5050727;28;20059;-84